createdAt,value
2019-01-08T00:01:10.228Z,0.4
2019-01-08T00:02:21.663Z,0.5
2019-01-08T00:03:33.157Z,5.5
2019-01-08T00:04:44.656Z,1.2
2019-01-08T00:05:55.683Z,2.1
2019-01-08T00:07:07.156Z,0.8
2019-01-08T00:08:18.664Z,0.6
2019-01-08T00:09:30.164Z,1
2019-01-08T00:10:41.678Z,1.2
2019-01-08T00:11:53.175Z,1.3
2019-01-08T00:13:04.661Z,1
2019-01-08T00:14:16.160Z,1.1
2019-01-08T00:15:27.672Z,1.1
2019-01-08T00:16:39.165Z,1.9
2019-01-08T00:17:50.658Z,1.7
2019-01-08T00:19:02.172Z,0.5
2019-01-08T00:20:13.686Z,2.7
2019-01-08T00:21:25.162Z,2.8
2019-01-08T00:22:36.672Z,2.2
2019-01-08T00:23:48.151Z,1.2
2019-01-08T00:24:59.659Z,1.1
2019-01-08T00:26:11.175Z,2.5
2019-01-08T00:27:20.736Z,2.1
2019-01-08T00:28:32.162Z,0.7
2019-01-08T00:29:43.666Z,1.5
2019-01-08T00:30:55.168Z,0.7
2019-01-08T00:32:06.660Z,4.2
2019-01-08T00:33:18.153Z,0.6
2019-01-08T00:34:29.658Z,1.4
2019-01-08T00:35:41.181Z,1.3
2019-01-08T00:36:52.658Z,2.1
2019-01-08T00:38:04.164Z,2.3
2019-01-08T00:39:15.675Z,3.7
2019-01-08T00:40:27.179Z,2
2019-01-08T00:41:38.670Z,0.7
2019-01-08T00:42:50.164Z,3.1
2019-01-08T00:44:01.655Z,1
2019-01-08T00:45:13.154Z,1.7
2019-01-08T00:46:24.687Z,2
2019-01-08T00:47:36.156Z,2.1
2019-01-08T00:48:47.663Z,1.3
2019-01-08T00:49:59.161Z,2.4
2019-01-08T00:51:10.670Z,3.5
2019-01-08T00:52:22.171Z,1.4
2019-01-08T00:53:34.694Z,0.7
2019-01-08T00:54:46.169Z,1.7
2019-01-08T00:55:57.674Z,0.9
2019-01-08T00:57:09.172Z,0.8
2019-01-08T00:58:20.660Z,1.7
2019-01-08T00:59:32.146Z,2.2
2019-01-08T01:00:43.665Z,2.5
2019-01-08T01:01:55.159Z,2.9
2019-01-08T01:03:06.652Z,1.4
2019-01-08T01:04:18.160Z,2.6
2019-01-08T01:05:29.654Z,2.2
2019-01-08T01:06:41.170Z,2.1
2019-01-08T01:07:52.660Z,0.7
2019-01-08T01:09:04.157Z,1.5
2019-01-08T01:10:15.664Z,2
2019-01-08T01:11:27.174Z,2.2
2019-01-08T01:12:38.651Z,1.5
2019-01-08T01:13:50.172Z,1.2
2019-01-08T01:15:01.685Z,1.3
2019-01-08T01:16:13.171Z,0.6
2019-01-08T01:17:24.675Z,3
2019-01-08T01:18:36.181Z,2.4
2019-01-08T01:19:47.665Z,1.3
2019-01-08T01:20:59.172Z,1.6
2019-01-08T01:22:10.671Z,3.1
2019-01-08T01:23:22.145Z,2.2
2019-01-08T01:24:33.657Z,2
2019-01-08T01:25:45.167Z,1.5
2019-01-08T01:26:56.669Z,0.9
2019-01-08T01:28:08.154Z,3.8
2019-01-08T01:29:19.655Z,2
2019-01-08T01:30:31.155Z,2.1
2019-01-08T01:31:42.687Z,2
2019-01-08T01:32:54.166Z,2.9
2019-01-08T01:34:05.652Z,1.7
2019-01-08T01:35:17.154Z,1.7
2019-01-08T01:36:28.674Z,2
2019-01-08T01:37:40.155Z,1
2019-01-08T01:38:51.661Z,4.4
2019-01-08T01:40:03.162Z,1.5
2019-01-08T01:41:14.672Z,0.8
2019-01-08T01:42:26.146Z,1.6
2019-01-08T01:43:37.666Z,0.6
2019-01-08T01:44:49.163Z,0.9
2019-01-08T01:45:58.690Z,1.2
2019-01-08T01:47:10.173Z,2.7
2019-01-08T01:48:21.665Z,1.2
2019-01-08T01:49:33.156Z,1.5
2019-01-08T01:50:44.664Z,2.7
2019-01-08T01:51:56.163Z,1.3
2019-01-08T01:53:07.650Z,1.5
2019-01-08T01:54:19.152Z,3
2019-01-08T01:55:30.653Z,2.1
2019-01-08T01:56:42.162Z,1.7
2019-01-08T01:57:53.652Z,2.2
2019-01-08T01:59:08.431Z,1.3
2019-01-08T02:00:17.653Z,1.7
2019-01-08T02:01:29.234Z,0.8
2019-01-08T04:56:10.169Z,1
2019-01-08T04:57:21.668Z,0.5
2019-01-08T04:58:33.134Z,2.4
2019-01-08T04:59:44.644Z,1.5
2019-01-08T05:00:56.141Z,0.4
2019-01-08T05:02:07.657Z,1.6
2019-01-08T05:03:18.154Z,0.5
2019-01-08T05:04:29.677Z,2
2019-01-08T05:05:41.164Z,3
2019-01-08T05:06:52.661Z,0.1
2019-01-08T05:08:04.191Z,0.4
2019-01-08T05:09:15.655Z,0.1
2019-01-08T05:10:27.162Z,0.1
2019-01-08T05:11:38.679Z,0.4
2019-01-08T05:12:50.147Z,0.3
2019-01-08T05:14:01.631Z,0.3
2019-01-08T05:15:13.138Z,0.2
2019-01-08T05:16:24.666Z,0.2
2019-01-08T05:17:36.142Z,0.5
2019-01-08T05:18:47.668Z,0.2
2019-01-08T05:19:59.127Z,0.1
2019-01-08T05:21:10.647Z,0.1
2019-01-08T05:22:22.151Z,0.1
2019-01-08T05:23:33.659Z,0.1
2019-01-08T05:24:45.119Z,0.1
2019-01-08T05:25:56.645Z,0.1
2019-01-08T05:27:08.152Z,0.3
2019-01-08T05:28:19.664Z,0.2
2019-01-08T05:29:31.132Z,0.2
2019-01-08T05:30:42.630Z,0.2
2019-01-08T05:31:54.166Z,0.2
2019-01-08T05:33:05.644Z,0.3
2019-01-08T05:34:17.146Z,0.1
2019-01-08T05:35:28.642Z,0.3
2019-01-08T05:36:38.236Z,0.7
2019-01-08T05:37:49.641Z,0.1
2019-01-08T05:39:01.139Z,0.1
2019-01-08T05:40:12.675Z,0.1
2019-01-08T05:41:24.127Z,0.9
2019-01-08T05:42:35.704Z,1.8
2019-01-08T05:43:47.156Z,0
2019-01-08T05:44:58.631Z,0.1
2019-01-08T05:46:10.119Z,0.1
2019-01-08T05:47:21.647Z,0.2
2019-01-08T05:48:33.174Z,0.2
2019-01-08T05:49:44.651Z,0.6
2019-01-08T05:50:56.165Z,0.3
2019-01-08T05:52:07.656Z,0.2
2019-01-08T05:53:19.144Z,0.1
2019-01-08T05:54:30.633Z,0.9
2019-01-08T05:55:41.139Z,0.2
2019-01-08T05:56:52.653Z,0.2
2019-01-08T05:58:04.137Z,0.1
2019-01-08T05:59:15.733Z,0.1
2019-01-08T06:00:27.155Z,0.1
2019-01-08T06:01:38.652Z,0.1
2019-01-08T06:02:50.156Z,0.1
2019-01-08T06:04:01.661Z,0.2
2019-01-08T06:05:13.149Z,0.2
2019-01-08T06:06:24.626Z,0.1
2019-01-08T06:07:36.153Z,0.2
2019-01-08T06:08:45.694Z,0.4
2019-01-08T06:09:57.168Z,0.1
2019-01-08T06:11:08.649Z,0.2
2019-01-08T06:12:20.150Z,0.1
2019-01-08T06:13:31.645Z,0.7
2019-01-08T06:14:43.142Z,0.1
2019-01-08T06:15:54.644Z,0.1
2019-01-08T06:17:06.154Z,0.2
2019-01-08T06:18:17.637Z,0.2
2019-01-08T06:19:29.132Z,0.1
2019-01-08T06:20:40.673Z,0.5
2019-01-08T06:21:52.138Z,0.2
2019-01-08T06:23:03.658Z,0.1
2019-01-08T06:24:15.138Z,0.1
2019-01-08T06:25:26.624Z,0.2
2019-01-08T06:26:38.117Z,0.2
2019-01-08T06:27:49.638Z,0.2
2019-01-08T06:29:01.140Z,0.1
2019-01-08T06:30:12.621Z,0.1
2019-01-08T06:31:24.147Z,0.2
2019-01-08T06:32:35.639Z,0.1
2019-01-08T06:33:47.144Z,0.1
2019-01-08T06:34:58.627Z,0.1
2019-01-08T06:36:10.115Z,0.1
2019-01-08T06:37:21.676Z,0.1
2019-01-08T06:38:33.140Z,0.1
2019-01-08T06:39:44.631Z,0.1
2019-01-08T06:40:57.651Z,0.1
2019-01-08T06:42:07.651Z,0.1
2019-01-08T06:43:19.148Z,0.1
2019-01-08T06:44:30.642Z,0.1
2019-01-08T06:45:42.126Z,0.1
2019-01-08T06:46:51.658Z,0.2
2019-01-08T06:48:03.142Z,0.1
2019-01-08T06:49:14.613Z,0.1
2019-01-08T06:50:26.153Z,0.1
2019-01-08T06:51:37.615Z,0.1
2019-01-08T06:52:49.164Z,0.1
2019-01-08T06:54:00.635Z,0.1
2019-01-08T06:55:12.145Z,0.3
2019-01-08T06:56:23.672Z,0.3
2019-01-08T06:57:36.991Z,0.3
2019-01-08T06:58:46.652Z,0.1
2019-01-08T06:59:56.198Z,0.1
2019-01-08T07:01:07.636Z,0.1
2019-01-08T07:02:18.150Z,0.1
2019-01-08T07:03:29.652Z,0.1
2019-01-08T07:04:41.136Z,0.1
2019-01-08T07:05:52.605Z,0.1
2019-01-08T07:07:04.156Z,0.1
2019-01-08T07:08:15.624Z,0.1
2019-01-08T07:09:27.121Z,0.1
2019-01-08T07:10:38.650Z,0.2
2019-01-08T07:11:50.133Z,0.1
2019-01-08T07:13:01.656Z,0.1
2019-01-08T07:14:13.149Z,0.2
2019-01-08T07:15:24.605Z,0.1
2019-01-08T07:16:35.137Z,0.1
2019-01-08T07:17:46.648Z,0.1
2019-01-08T07:18:58.135Z,0
2019-01-08T07:20:09.640Z,0.1
2019-01-08T07:21:21.140Z,0.1
2019-01-08T07:22:32.620Z,0.1
2019-01-08T07:23:44.159Z,0.1
2019-01-08T07:24:55.619Z,0.1
2019-01-08T07:26:07.135Z,0.1
2019-01-08T07:27:18.619Z,0.1
2019-01-08T07:28:30.152Z,0.1
2019-01-08T07:29:41.640Z,0.1
2019-01-08T07:30:53.138Z,0.2
2019-01-08T07:32:04.656Z,0.3
2019-01-08T07:33:16.237Z,0.1
2019-01-08T07:34:27.653Z,0
2019-01-08T07:35:40.132Z,0.1
2019-01-08T07:36:51.608Z,0.2
2019-01-08T07:38:03.127Z,0.1
2019-01-08T07:39:14.616Z,0.3
2019-01-08T07:40:26.148Z,0.2
2019-01-08T07:41:37.628Z,0.1
2019-01-08T07:42:49.141Z,0.3
2019-01-08T07:44:00.638Z,0.1
2019-01-08T07:45:12.137Z,0.6
2019-01-08T07:46:23.615Z,0.1
2019-01-08T07:47:35.125Z,0.1
2019-01-08T07:48:46.629Z,0.1
2019-01-08T07:49:58.131Z,0.2
2019-01-08T07:51:09.631Z,0.1
2019-01-08T07:52:21.148Z,0.4
2019-01-08T07:53:32.626Z,0.1
2019-01-08T07:54:44.136Z,0.2
2019-01-08T07:55:55.634Z,0.1
2019-01-08T07:57:05.206Z,0.3
2019-01-08T07:58:16.623Z,0.1
2019-01-08T07:59:28.143Z,0.1
2019-01-08T08:00:39.656Z,0.1
2019-01-08T08:01:52.129Z,0.2
2019-01-08T08:03:03.625Z,0.4
2019-01-08T08:04:15.293Z,0.4
2019-01-08T08:05:26.630Z,0.1
2019-01-08T08:06:38.141Z,0.2
2019-01-08T08:07:49.638Z,0.1
2019-01-08T08:09:01.136Z,0.1
2019-01-08T08:10:12.588Z,0.2
2019-01-08T08:11:24.118Z,0.1
2019-01-08T08:12:35.652Z,0.2
2019-01-08T08:13:46.126Z,0.2
2019-01-08T08:14:57.625Z,0.3
2019-01-08T08:16:09.161Z,0.2
2019-01-08T08:17:20.606Z,0.1
2019-01-08T08:18:32.107Z,0.1
2019-01-08T08:19:43.637Z,0
2019-01-08T08:20:56.134Z,0.1
2019-01-08T08:22:05.689Z,0.2
2019-01-08T08:23:17.114Z,0.2
2019-01-08T08:24:28.632Z,0.1
2019-01-08T08:25:40.114Z,0.1
2019-01-08T08:26:51.626Z,0.1
2019-01-08T08:28:03.106Z,0.1
2019-01-08T08:29:14.728Z,0.1
2019-01-08T08:30:26.421Z,0.1
2019-01-08T08:31:36.626Z,0.1
2019-01-08T08:32:48.115Z,0.1
2019-01-08T08:33:59.693Z,0.2
2019-01-08T08:35:11.106Z,0.1
2019-01-08T08:36:22.642Z,0.1
2019-01-08T08:37:34.126Z,0.1
2019-01-08T08:38:45.623Z,0.2
2019-01-08T08:39:57.291Z,0.1
2019-01-08T08:41:08.643Z,0.2
2019-01-08T08:42:20.143Z,0.1
2019-01-08T08:43:31.620Z,0.1
2019-01-08T08:44:43.120Z,0.1
2019-01-08T08:45:54.612Z,0.1
2019-01-08T08:47:06.109Z,0.1
2019-01-08T08:48:17.609Z,0
2019-01-08T08:49:34.151Z,0.2
2019-01-08T08:50:43.666Z,0.1
2019-01-08T08:51:53.183Z,0.1
2019-01-08T08:53:02.729Z,0.1
2019-01-08T08:54:12.262Z,0.2
2019-01-08T08:55:21.889Z,0.1
2019-01-08T08:56:31.392Z,0.1
2019-01-08T08:57:40.943Z,0.1
2019-01-08T08:58:50.477Z,0.1
2019-01-08T09:00:00.014Z,0.2
2019-01-08T09:01:09.529Z,0.1
2019-01-08T09:02:19.032Z,0.1
2019-01-08T09:03:28.538Z,0.1
2019-01-08T09:04:38.140Z,0.1
2019-01-08T09:05:47.673Z,0.1
2019-01-08T09:06:57.224Z,0.1
2019-01-08T09:08:06.731Z,0.3
2019-01-08T09:09:16.347Z,0.1
2019-01-08T09:10:25.885Z,0.3
2019-01-08T09:11:35.397Z,0.2
2019-01-08T09:12:44.914Z,0.1
2019-01-08T09:13:54.459Z,0.2
2019-01-08T09:15:03.999Z,0.3
2019-01-08T09:16:13.544Z,0.2
2019-01-08T09:17:23.062Z,0.1
2019-01-08T09:18:33.732Z,0.1
2019-01-08T09:19:42.116Z,0.1
2019-01-08T09:20:51.628Z,0.1
2019-01-08T09:22:01.139Z,0.2
2019-01-08T09:23:10.664Z,0.1
2019-01-08T09:24:20.208Z,0.9
2019-01-08T09:25:29.737Z,0.1
2019-01-08T09:26:39.285Z,0.1
2019-01-08T09:27:48.833Z,0.1
2019-01-08T09:28:58.423Z,0.1
2019-01-08T09:30:07.973Z,0.1
2019-01-08T09:31:17.485Z,0.1
2019-01-08T09:32:26.999Z,0.1
2019-01-08T09:33:35.562Z,0.1
2019-01-08T09:34:45.122Z,0.2
2019-01-08T09:35:54.692Z,0.1
2019-01-08T09:37:04.323Z,0.2
2019-01-08T09:38:13.879Z,1
2019-01-08T09:39:23.473Z,0.1
2019-01-08T09:40:33.065Z,0.3
2019-01-08T09:41:42.604Z,0.1
2019-01-08T09:42:52.165Z,0.4
2019-01-08T09:44:01.737Z,0.1
2019-01-08T09:45:11.275Z,0.4
2019-01-08T09:46:20.789Z,0.1
2019-01-08T09:47:30.381Z,0.2
2019-01-08T09:48:39.837Z,0.1
2019-01-08T09:49:49.366Z,0.1
2019-01-08T09:50:58.886Z,1.6
2019-01-08T09:52:08.416Z,0.2
2019-01-08T09:53:17.934Z,0.1
2019-01-08T09:54:27.458Z,0.1
2019-01-08T09:55:37.010Z,0.1
2019-01-08T09:56:46.523Z,0.1
2019-01-08T09:57:56.047Z,0.2
2019-01-08T09:59:05.591Z,0.8
2019-01-08T10:00:15.297Z,0.2
2019-01-08T10:01:24.798Z,0.6
2019-01-08T10:02:34.317Z,0.1
2019-01-08T10:03:43.831Z,0.1
2019-01-08T10:04:53.355Z,0.2
2019-01-08T10:06:02.884Z,0.1
2019-01-08T10:07:12.465Z,0.2
2019-01-08T10:08:22.037Z,0.4
2019-01-08T10:09:31.575Z,0.2
2019-01-08T10:10:41.134Z,0.1
2019-01-08T10:11:50.651Z,0.2
2019-01-08T10:13:00.158Z,0.2
2019-01-08T10:14:09.695Z,0.1
2019-01-08T10:15:19.223Z,0.2
2019-01-08T10:16:28.757Z,0.1
2019-01-08T10:17:38.325Z,0.4
2019-01-08T10:18:47.840Z,0.1
2019-01-08T10:19:57.361Z,0.2
2019-01-08T10:21:07.881Z,0.6
2019-01-08T10:22:17.390Z,0.2
2019-01-08T10:23:26.947Z,0
2019-01-08T10:24:36.464Z,0.3
2019-01-08T10:25:46.027Z,0.1
2019-01-08T10:26:55.538Z,0.1
2019-01-08T10:28:05.081Z,0.1
2019-01-08T10:29:14.740Z,0.2
2019-01-08T10:30:24.289Z,0.1
2019-01-08T10:31:33.819Z,0.1
2019-01-08T10:32:43.341Z,0.2
2019-01-08T10:33:52.868Z,0.1
2019-01-08T10:35:02.388Z,0.4
2019-01-08T10:36:11.931Z,0.1
2019-01-08T10:37:21.449Z,0.1
2019-01-08T10:38:30.993Z,0.1
2019-01-08T10:39:40.505Z,0.6
2019-01-08T10:40:50.045Z,0.1
2019-01-08T10:41:59.573Z,0.1
2019-01-08T10:43:09.127Z,0.5
2019-01-08T10:44:18.650Z,0.1
2019-01-08T10:45:28.200Z,0.1
2019-01-08T10:46:37.825Z,0.6
2019-01-08T10:47:47.294Z,0.1
2019-01-08T10:48:56.825Z,0.1
2019-01-08T10:50:06.389Z,0.1
2019-01-08T10:51:15.944Z,0.1
2019-01-08T10:52:25.489Z,0.1
2019-01-08T10:53:35.014Z,0.1
2019-01-08T10:54:44.576Z,0.1
2019-01-08T10:55:54.097Z,0
2019-01-08T10:57:03.625Z,1
2019-01-08T10:58:13.132Z,0.1
2019-01-08T10:59:22.638Z,0.1
2019-01-08T11:00:32.179Z,0.1
2019-01-08T11:01:41.692Z,0.3
2019-01-08T11:02:51.219Z,0.1
2019-01-08T11:04:00.739Z,0.1
2019-01-08T11:05:10.277Z,0.2
2019-01-08T11:06:19.799Z,0.1
2019-01-08T11:07:29.333Z,0.2
2019-01-08T11:08:38.865Z,0.2
2019-01-08T11:09:48.374Z,0.3
2019-01-08T11:10:57.890Z,0.2
2019-01-08T11:12:07.421Z,0.4
2019-01-08T11:13:16.930Z,0.8
2019-01-08T11:14:26.449Z,0.1
2019-01-08T11:15:36.011Z,0.4
2019-01-08T11:16:45.609Z,0.4
2019-01-08T11:17:55.154Z,0.1
2019-01-08T11:19:04.666Z,0.1
2019-01-08T11:20:14.195Z,0.1
2019-01-08T11:21:23.740Z,0.5
2019-01-08T11:22:33.256Z,0.1
2019-01-08T11:23:42.796Z,0.1
2019-01-08T11:24:52.314Z,0.1
2019-01-08T11:26:01.840Z,0.1
2019-01-08T11:27:11.383Z,0.3
2019-01-08T11:28:20.923Z,0.1
2019-01-08T11:29:30.441Z,0.3
2019-01-08T11:30:39.979Z,0.2
2019-01-08T11:31:49.499Z,0.3
2019-01-08T11:32:59.010Z,0.1
2019-01-08T11:34:08.565Z,0.2
2019-01-08T11:35:18.089Z,0.3
2019-01-08T11:36:27.627Z,0.2
2019-01-08T11:37:37.169Z,0.1
2019-01-08T11:38:46.728Z,0.1
2019-01-08T11:39:56.297Z,0.2
2019-01-08T11:41:05.845Z,0.2
2019-01-08T11:42:15.387Z,0.4
2019-01-08T11:43:24.920Z,0.3
2019-01-08T11:44:34.456Z,0.2
2019-01-08T11:45:43.980Z,1.2
2019-01-08T11:46:53.505Z,0.1
2019-01-08T11:48:04.010Z,0.2
2019-01-08T11:49:12.507Z,0.9
2019-01-08T11:50:22.066Z,0.2
2019-01-08T11:51:31.605Z,0.2
2019-01-08T11:52:41.126Z,0.1
2019-01-08T11:53:50.678Z,0.2
2019-01-08T11:55:00.270Z,0.3
2019-01-08T11:56:09.779Z,0.7
2019-01-08T11:57:19.579Z,0.1
2019-01-08T11:58:29.108Z,0.2
2019-01-08T11:59:38.693Z,0.2
2019-01-08T12:00:48.241Z,0.1
2019-01-08T12:01:57.779Z,0.5
2019-01-08T12:03:07.310Z,0.2
2019-01-08T12:04:16.825Z,0.2
2019-01-08T12:05:26.379Z,0.1
2019-01-08T12:06:35.961Z,0.2
2019-01-08T12:07:45.501Z,0.3
2019-01-08T12:08:55.091Z,0.1
2019-01-08T12:10:04.619Z,0.6
2019-01-08T12:11:14.165Z,0.6
2019-01-08T12:12:23.716Z,0.2
2019-01-08T12:13:33.250Z,0.2
2019-01-08T12:14:42.758Z,0.2
2019-01-08T12:15:52.317Z,0.4
2019-01-08T12:17:01.938Z,0.1
2019-01-08T12:18:11.475Z,0.4
2019-01-08T12:19:20.996Z,0.2
2019-01-08T12:20:30.532Z,0.4
2019-01-08T12:21:40.157Z,0.2
2019-01-08T12:22:49.676Z,0.2
2019-01-08T12:23:59.217Z,0.1
2019-01-08T12:25:08.786Z,0.1
2019-01-08T12:26:18.318Z,0.3
2019-01-08T12:27:27.870Z,0
2019-01-08T12:28:37.377Z,0.1
2019-01-08T12:29:46.896Z,0.3
2019-01-08T12:30:56.456Z,0.6
2019-01-08T12:32:06.550Z,0.7
2019-01-08T12:33:15.499Z,0.5
2019-01-08T12:34:25.058Z,0.5
2019-01-08T12:35:34.589Z,0.1
2019-01-08T12:36:44.104Z,0.7
2019-01-08T12:37:53.686Z,0.2
2019-01-08T12:39:03.223Z,0.2
2019-01-08T12:40:12.731Z,0.5
2019-01-08T12:41:22.284Z,0.1
2019-01-08T12:42:31.895Z,0.1
2019-01-08T12:43:41.430Z,0.7
2019-01-08T12:44:51.005Z,0.3
2019-01-08T12:46:00.537Z,0.1
2019-01-08T12:47:10.121Z,0.3
2019-01-08T12:48:19.683Z,0.1
2019-01-08T12:49:29.249Z,0.1
2019-01-08T12:50:38.933Z,0.2
2019-01-08T12:51:48.477Z,0.2
2019-01-08T12:52:58.082Z,0.6
2019-01-08T12:54:07.674Z,0.1
2019-01-08T12:55:17.238Z,0.2
2019-01-08T12:56:26.781Z,0.1
2019-01-08T12:57:36.344Z,0.2
2019-01-08T12:58:45.861Z,0.4
2019-01-08T12:59:55.535Z,0.2
2019-01-08T13:01:05.100Z,0.3
2019-01-08T13:02:15.078Z,0.6
2019-01-08T13:03:24.252Z,0.1
2019-01-08T13:04:33.815Z,0.6
2019-01-08T13:05:43.379Z,0.2
2019-01-08T13:06:52.883Z,0.2
2019-01-08T13:08:02.425Z,0.1
2019-01-08T13:09:12.875Z,0.1
2019-01-08T13:10:22.413Z,0.1
2019-01-08T13:11:31.950Z,0.1
2019-01-08T13:12:41.521Z,0.2
2019-01-08T13:13:51.073Z,0.1
2019-01-08T13:15:00.596Z,0.1
2019-01-08T13:16:10.137Z,0.2
2019-01-08T13:17:20.706Z,0.3
2019-01-08T13:18:30.256Z,0.8
2019-01-08T13:19:39.815Z,0.1
2019-01-08T13:20:49.365Z,0.6
2019-01-08T13:21:58.874Z,0.1
2019-01-08T13:23:08.464Z,0.4
2019-01-08T13:24:18.014Z,0.1
2019-01-08T13:25:27.547Z,0.1
2019-01-08T13:26:37.087Z,0.2
2019-01-08T13:27:46.654Z,0.3
2019-01-08T13:28:56.178Z,0
2019-01-08T13:30:05.723Z,0.2
2019-01-08T13:31:15.261Z,0.1
2019-01-08T13:32:24.827Z,0.3
2019-01-08T13:33:34.370Z,0.3
2019-01-08T13:34:43.890Z,0.1
2019-01-08T13:35:53.441Z,0.5
2019-01-08T13:37:03.046Z,0.5
2019-01-08T13:38:12.584Z,1.5
2019-01-08T13:39:22.098Z,0.7
2019-01-08T13:40:31.641Z,0.1
2019-01-08T13:41:41.247Z,0.1
2019-01-08T13:42:50.851Z,0.1
2019-01-08T13:44:00.398Z,0.2
2019-01-08T13:45:09.941Z,0.2
2019-01-08T13:46:19.518Z,0.1
2019-01-08T13:47:29.110Z,0.1
2019-01-08T13:48:38.688Z,0.1
2019-01-08T13:49:48.229Z,0.1
2019-01-08T13:50:56.757Z,0.1
2019-01-08T13:52:06.344Z,0.2
2019-01-08T13:53:15.906Z,0.1
2019-01-08T13:54:25.457Z,0.1
2019-01-08T13:55:34.977Z,0.1
2019-01-08T13:56:44.523Z,0.6
2019-01-08T13:57:54.070Z,0.3
2019-01-08T13:59:03.682Z,0.5
2019-01-08T14:00:13.221Z,0.4
2019-01-08T14:01:22.791Z,0.1
2019-01-08T14:02:32.353Z,0.2
2019-01-08T14:03:41.897Z,0.2
2019-01-08T14:04:51.401Z,0.2
2019-01-08T14:06:00.965Z,0.1
2019-01-08T14:07:10.584Z,0.2
2019-01-08T14:08:20.134Z,0.2
2019-01-08T14:09:29.648Z,0.6
2019-01-08T14:10:39.180Z,0.1
2019-01-08T14:11:48.760Z,0.1
2019-01-08T14:12:58.313Z,0.4
2019-01-08T14:14:07.828Z,1.2
2019-01-08T14:15:17.360Z,0.5
2019-01-08T14:16:26.923Z,0.1
2019-01-08T14:17:36.469Z,0.2
2019-01-08T14:18:46.049Z,0.2
2019-01-08T14:19:55.594Z,0.2
2019-01-08T14:21:05.141Z,0.3
2019-01-08T14:22:14.676Z,0.2
2019-01-08T14:23:24.203Z,0.1
2019-01-08T14:24:34.730Z,0.1
2019-01-08T14:25:44.261Z,0.1
2019-01-08T14:26:53.771Z,0.1
2019-01-08T14:28:03.343Z,0.1
2019-01-08T14:29:12.970Z,0.1
2019-01-08T14:30:22.491Z,0.3
2019-01-08T14:31:32.020Z,0.1
2019-01-08T14:32:41.548Z,0.2
2019-01-08T14:33:51.069Z,1.2
2019-01-08T14:35:00.609Z,0.3
2019-01-08T14:36:10.163Z,0.1
2019-01-08T14:37:19.728Z,0
2019-01-08T14:38:29.280Z,0.1
2019-01-08T14:39:39.220Z,0.1
2019-01-08T14:40:48.955Z,0.5
2019-01-08T14:41:58.476Z,0.2
2019-01-08T14:43:13.845Z,0.1
2019-01-08T14:44:18.595Z,0.1
2019-01-08T14:45:28.147Z,0.1
2019-01-08T14:46:37.676Z,0.1
2019-01-08T14:47:47.258Z,0.3
2019-01-08T14:48:56.798Z,0.1
2019-01-08T14:50:06.318Z,0.1
2019-01-08T14:51:15.873Z,0.1
2019-01-08T14:52:25.387Z,0.1
2019-01-08T14:53:34.958Z,0.1
2019-01-08T14:54:44.491Z,0.1
2019-01-08T14:55:54.003Z,0.1
2019-01-08T14:57:03.555Z,0.6
2019-01-08T14:58:13.108Z,0.1
2019-01-08T14:59:23.076Z,0.1
2019-01-08T15:00:33.668Z,0.1
2019-01-08T15:01:43.212Z,0.1
2019-01-08T15:02:52.837Z,0.9
2019-01-08T15:04:02.372Z,0.1
2019-01-08T15:05:11.960Z,0.1
2019-01-08T15:06:21.452Z,0.1
2019-01-08T15:07:31.059Z,0.7
2019-01-08T15:08:41.020Z,0.2
2019-01-08T15:09:50.359Z,0.1
2019-01-08T15:11:00.035Z,0.1
2019-01-08T15:12:09.554Z,0.1
2019-01-08T15:13:19.117Z,0.4
2019-01-08T15:14:28.668Z,0.2
2019-01-08T15:15:38.219Z,0.1
2019-01-08T15:16:47.763Z,0.4
2019-01-08T15:17:57.343Z,0.3
2019-01-08T15:19:06.895Z,0.2
2019-01-08T15:20:17.114Z,0.2
2019-01-08T15:21:26.629Z,0.1
2019-01-08T15:22:36.334Z,0.2
2019-01-08T15:23:45.844Z,0.1
2019-01-08T15:24:55.420Z,0.1
2019-01-08T15:26:04.977Z,0.1
2019-01-08T15:27:14.668Z,0.1
2019-01-08T15:28:24.436Z,0.1
2019-01-08T15:29:34.035Z,0.1
2019-01-08T15:30:43.599Z,0.1
2019-01-08T15:31:53.130Z,0.1
2019-01-08T15:33:02.678Z,0.3
2019-01-08T15:34:12.201Z,0.1
2019-01-08T15:35:21.779Z,0.3
2019-01-08T15:36:31.299Z,0.2
2019-01-08T15:37:40.894Z,0.1
2019-01-08T15:38:50.469Z,0.2
2019-01-08T15:40:00.030Z,0.3
2019-01-08T15:41:09.748Z,0.1
2019-01-08T15:42:19.213Z,0.2
2019-01-08T15:43:28.772Z,0.7
2019-01-08T15:44:38.304Z,0.1
2019-01-08T15:45:47.830Z,0.1
2019-01-08T15:46:57.358Z,0.4
2019-01-08T15:48:06.940Z,0.1
2019-01-08T15:49:16.491Z,0.1
2019-01-08T15:50:26.026Z,0.1
2019-01-08T15:51:35.772Z,0.1
2019-01-08T15:52:45.325Z,0.2
2019-01-08T15:53:54.987Z,0.1
2019-01-08T15:55:05.531Z,0.2
2019-01-08T15:56:15.093Z,1.6
2019-01-08T15:57:24.596Z,0.3
2019-01-08T15:58:34.150Z,0.1
2019-01-08T15:59:43.648Z,0.2
2019-01-08T16:00:53.189Z,0.1
2019-01-08T16:02:02.705Z,0.4
2019-01-08T16:03:12.266Z,0.7
2019-01-08T16:04:21.800Z,0.2
2019-01-08T16:05:31.350Z,0.1
2019-01-08T16:06:40.875Z,0.1
2019-01-08T16:07:50.408Z,0.1
2019-01-08T16:08:59.918Z,0.3
2019-01-08T16:10:09.452Z,0.9
2019-01-08T16:11:19.021Z,0.1
2019-01-08T16:12:28.544Z,0.2
2019-01-08T16:13:38.054Z,0.3
2019-01-08T16:14:47.585Z,0.3
2019-01-08T16:15:57.168Z,0.5
2019-01-08T16:17:06.711Z,0.1
2019-01-08T16:18:16.276Z,0.2
2019-01-08T16:19:26.778Z,0.2
2019-01-08T16:20:36.341Z,0.1
2019-01-08T16:21:45.859Z,0.1
2019-01-08T16:22:55.381Z,0.1
2019-01-08T16:24:04.923Z,0.4
2019-01-08T16:25:14.443Z,0.3
2019-01-08T16:26:24.013Z,0.1
2019-01-08T16:27:33.531Z,0.2
2019-01-08T16:28:43.045Z,2.6
2019-01-08T16:29:52.546Z,0.2
2019-01-08T16:31:02.111Z,0.2
2019-01-08T16:32:11.645Z,0.2
2019-01-08T16:33:21.167Z,0.2
2019-01-08T16:34:30.709Z,0.1
2019-01-08T16:35:40.282Z,0.2
2019-01-08T16:36:49.837Z,0.1
2019-01-08T16:37:59.365Z,0.3
2019-01-08T16:39:08.896Z,0.4
2019-01-08T16:40:18.412Z,0.2
2019-01-08T16:41:27.967Z,0.2
2019-01-08T16:42:37.513Z,0.1
2019-01-08T16:43:47.050Z,0.2
2019-01-08T16:44:56.560Z,0.5
2019-01-08T16:46:06.124Z,0.5
2019-01-08T16:47:15.653Z,0.8
2019-01-08T16:48:25.220Z,0.1
2019-01-08T16:49:34.747Z,0.1
2019-01-08T16:50:44.310Z,0.6
2019-01-08T16:51:53.829Z,0.1
2019-01-08T16:53:03.360Z,0.2
2019-01-08T16:54:12.932Z,0.2
2019-01-08T16:55:22.468Z,0.1
2019-01-08T16:56:32.033Z,1.1
2019-01-08T16:57:41.561Z,1
2019-01-08T16:58:51.073Z,0.1
2019-01-08T17:00:00.614Z,0.1
2019-01-08T17:01:10.176Z,0.1
2019-01-08T17:02:19.690Z,0.1
2019-01-08T17:03:29.186Z,0.1
2019-01-08T17:04:38.723Z,0.2
2019-01-08T17:05:48.308Z,0.1
2019-01-08T17:06:57.883Z,0.5
2019-01-08T17:08:07.412Z,0.3
2019-01-08T17:09:16.937Z,0.1
2019-01-08T17:10:26.476Z,0.8
2019-01-08T17:11:36.030Z,0.7
2019-01-08T17:12:45.571Z,0.1
2019-01-08T17:13:55.117Z,0.1
2019-01-08T17:15:04.635Z,1.7
2019-01-08T17:16:16.132Z,0.1
2019-01-08T17:17:23.721Z,0.2
2019-01-08T17:18:33.258Z,0.1
2019-01-08T17:19:42.790Z,0.7
2019-01-08T17:20:52.316Z,1.6
2019-01-08T17:22:01.923Z,1.6
2019-01-08T17:23:11.492Z,0.4
2019-01-08T17:24:20.973Z,0.1
2019-01-08T17:25:30.533Z,0.2
2019-01-08T17:26:40.092Z,0.2
2019-01-08T17:27:49.602Z,0.1
2019-01-08T17:28:59.128Z,0.2
2019-01-08T17:30:08.694Z,0.1
2019-01-08T17:31:18.219Z,0.1
2019-01-08T17:32:27.791Z,0.5
2019-01-08T17:33:37.352Z,0.1
2019-01-08T17:34:46.917Z,0.2
2019-01-08T17:35:56.430Z,0.3
2019-01-08T17:37:06.024Z,0.2
2019-01-08T17:38:15.562Z,0.2
2019-01-08T17:39:25.233Z,0.5
2019-01-08T17:40:34.695Z,0.2
2019-01-08T17:41:44.288Z,0.3
2019-01-08T17:42:53.851Z,0.4
2019-01-08T17:44:03.419Z,0.3
2019-01-08T17:45:12.983Z,0.3
2019-01-08T17:46:22.511Z,0.4
2019-01-08T17:47:32.148Z,0.4
2019-01-08T17:48:41.686Z,0.5
2019-01-08T17:49:51.257Z,0.3
2019-01-08T17:51:00.839Z,0.7
2019-01-08T17:52:10.458Z,0.3
2019-01-08T17:53:19.996Z,0.1
2019-01-08T17:54:29.520Z,0.4
2019-01-08T17:55:39.079Z,0.1
2019-01-08T17:56:48.686Z,0.1
2019-01-08T17:57:58.290Z,0.1
2019-01-08T17:59:07.791Z,0.1
2019-01-08T18:00:17.324Z,0.2
2019-01-08T18:01:26.873Z,0.1
2019-01-08T18:02:36.472Z,0.4
2019-01-08T18:03:45.975Z,0.5
2019-01-08T18:04:55.487Z,0.2
2019-01-08T18:06:05.013Z,0
2019-01-08T18:07:14.613Z,0.3
2019-01-08T18:08:24.120Z,0.2
2019-01-08T18:09:33.647Z,0.1
2019-01-08T18:10:43.200Z,0.4
2019-01-08T18:11:52.778Z,0.1
2019-01-08T18:13:01.305Z,0.1
2019-01-08T18:14:10.964Z,0.4
2019-01-08T18:15:20.503Z,0.3
2019-01-08T18:16:30.060Z,0.1
2019-01-08T18:17:39.662Z,0.3
2019-01-08T18:18:49.170Z,0.1
2019-01-08T18:19:58.682Z,1.2
2019-01-08T18:21:08.209Z,0.2
2019-01-08T18:22:17.755Z,0.1
2019-01-08T18:23:27.269Z,0.2
2019-01-08T18:24:36.850Z,0.2
2019-01-08T18:25:46.417Z,0.4
2019-01-08T18:26:56.012Z,0.2
2019-01-08T18:28:05.579Z,0.1
2019-01-08T18:29:15.141Z,0.4
2019-01-08T18:30:24.738Z,0.5
2019-01-08T18:31:34.260Z,0.2
2019-01-08T18:32:43.842Z,0.2
2019-01-08T18:33:53.352Z,0.4
2019-01-08T18:35:02.884Z,0.1
2019-01-08T18:36:12.418Z,0.6
2019-01-08T18:37:21.961Z,0.5
2019-01-08T18:38:31.519Z,0.6
2019-01-08T18:39:41.095Z,0.2
2019-01-08T18:40:50.610Z,0.2
2019-01-08T18:42:00.152Z,0.3
2019-01-08T18:43:14.043Z,1.2
2019-01-08T18:44:20.237Z,1
2019-01-08T18:45:29.792Z,0.2
2019-01-08T18:46:39.329Z,0.2
2019-01-08T18:47:50.003Z,0.2
2019-01-08T18:48:59.590Z,0.3
2019-01-08T18:50:09.048Z,0.2
2019-01-08T18:51:18.558Z,0.2
2019-01-08T18:52:28.109Z,0.1
2019-01-08T18:53:37.635Z,0.1
2019-01-08T18:54:47.165Z,0.1
2019-01-08T18:55:56.685Z,0.2
2019-01-08T18:57:06.206Z,0.3
2019-01-08T18:58:15.796Z,0.2
2019-01-08T18:59:25.325Z,0.1
2019-01-08T19:00:34.878Z,0.2
2019-01-08T19:01:44.433Z,0.2
2019-01-08T19:02:54.007Z,0.2
2019-01-08T19:04:03.518Z,0.5